نيويورك, NY

09:08 PM EDT on سبتهبر 04, 2015 (GMT -0400)
Murray Hill | | Change Station
CLOSE
Current Station
Personal Weather Stations
Location: New York, NY
Elevation: 98 ft
Nearby Weather Stations

Elev 98 ft 40.75 °N, 73.98 °W | Updated 2 seconds ago

Clear
صافية
74.1 °F
Feels Like 76 °F
N
2.0
ريح متغير ريح from شرق
Gusts 9.0 mph

هذا اليوم
High -- | Low -- °F
--% Chance of Precip.
Yesterday
High -- | Low -- °F
Precip. -- في
6:25 AM 7:23 PM
الأحدب الأخير, 54% visible
الضغط 30.17 في
وضوح الرؤية 10.0 أميال
سحابات صافية
مؤشر الحرارة 76 °F
نقطة الندى 65 °F
الرطوبة 72%
Rainfall 0.00 في
عمق الثلج Not available.
الأشعة فوق البنفسجية 0 out of 12
Pollen 9.00 out of 12
جودة الهواء Not available.
Flu Activity Not available.
METAR KNYC 050051Z AUTO VRB04KT 10SM CLR 24/17 A3019 RMK AO2 SLP214 T02440167 $
الضغط 30.17 في
وضوح الرؤية 10.0 أميال
سحابات صافية
مؤشر الحرارة 76 °F
نقطة الندى 65 °F
الرطوبة 72%
Rainfall 0.00 في
عمق الثلج Not available.
الأشعة فوق البنفسجية 0 out of 12
Pollen 9.00 out of 12
جودة الهواء Not available.
Flu Activity Not available.
METAR KNYC 050051Z AUTO VRB04KT 10SM CLR 24/17 A3019 RMK AO2 SLP214 T02440167 $

10-Day Weather Forecast

×

Almanac

علم الفلك

Sep. 04, 2015 Rise Set
Actual Time
Civil Twilight
Nautical Twilight
Astronomical Twilight
قمر
Length Of Visible Light
طول الیوم
Tomorrow will be .
, % of the Moon is Illuminated

Today's Extremes

State Highs State Lows

Community

WunderPhotos

Upload Photos

1,852,367 photos uploaded!

WunderBlogs® & News

Nearby

جودة الهواء

  جودة الهواء AQ Index Pollutant
Not available.

عمق الثلج

Station Depth Elevation

Earthquake Activity

City Distance Mag. Time & Date
Minimum magnitude displayed is 2.5.

Coastal Water Temperatures

مكان درجات الحرارة

Stations

Nearby Weather Stations

Station Location الحرارة رياح باردة نقطة الندى الرطوبة ريح Precip. Elev تحديث Type